PWSweather.com
Personal Weather Stations
Station Observations
RAINWISE1
Rainwise Factory, Bar Harbor, ME 04609

Rainwise FactoryBar Harbor, ME 04609

Lat: 44.3897429696629, Lon: -68.2077813148499

Elevation: 29

Station Type: Rainwise MK-III

www.rainwise.com

High Low Average
Temperature 56.4°F13.6°F 34.2°F1.2°F 41.6°F5.3°F
Dew Point 45.9°F7.7°F 34.2°F1.2°F 38.4°F3.6°F
Winds 10.5 mph SSW16.9 mph SSW Calm Calm 2.9 mph 4.7 mph
Wind Gusts 14.2 mph22.9 mph -- 4.2 mph6.8 mph
Humidity 100% 59% 89%
Pressure 30.10 in1019.30 in 0.00 in0.00 in -
Precipitation 0.00 in0.00 in - -
Hour Temp Dew Point Humidity Winds Wind Gusts Pressure Precip Precip Rate Daily Precip Total
12:04 AM 36.3°F2.4°C 36.3°F2.4°C 100% 1.6 mph NNE2.6 kmh NNE 2.7 mph4.3 kmh 29.97 in1014.9 mb 0.00 in0.0 mm 0.00 in0.0 mm 0.00 in0.0 mm
12:09 AM 36.2°F2.3°C 36.2°F2.3°C 100% 2.1 mph NNE3.4 kmh NNE 3.1 mph5.0 kmh 29.97 in1014.9 mb 0.00 in0.0 mm 0.00 in0.0 mm 0.00 in0.0 mm
12:14 AM 36.2°F2.3°C 36.2°F2.3°C 100% 1.4 mph NE2.3 kmh NE 2.3 mph3.7 kmh 29.97 in1014.9 mb 0.00 in0.0 mm 0.00 in0.0 mm 0.00 in0.0 mm
12:19 AM 36.2°F2.3°C 36.2°F2.3°C 100% 1.4 mph NNE2.3 kmh NNE 2.5 mph4.0 kmh 29.97 in1014.9 mb 0.00 in0.0 mm 0.00 in0.0 mm 0.00 in0.0 mm
12:24 AM 36.2°F2.3°C 36.2°F2.3°C 100% 2.0 mph NNE3.2 kmh NNE 3.4 mph5.5 kmh 29.97 in1014.9 mb 0.00 in0.0 mm 0.00 in0.0 mm 0.00 in0.0 mm
12:29 AM 36.2°F2.3°C 36.2°F2.3°C 100% 2.2 mph NNE3.5 kmh NNE 3.1 mph5.0 kmh 29.96 in1014.6 mb 0.00 in0.0 mm 0.00 in0.0 mm 0.00 in0.0 mm
12:34 AM 36.2°F2.3°C 36.2°F2.3°C 100% 1.4 mph N2.3 kmh N 2.5 mph4.0 kmh 29.96 in1014.6 mb 0.00 in0.0 mm 0.00 in0.0 mm 0.00 in0.0 mm
12:39 AM 36.1°F2.3°C 36.1°F2.3°C 100% 1.3 mph N2.1 kmh N 2.4 mph3.9 kmh 29.96 in1014.6 mb 0.00 in0.0 mm 0.00 in0.0 mm 0.00 in0.0 mm
12:44 AM 36.1°F2.3°C 36.1°F2.3°C 100% 1.5 mph NNW2.4 kmh NNW 2.6 mph4.2 kmh 29.96 in1014.6 mb 0.00 in0.0 mm 0.00 in0.0 mm 0.00 in0.0 mm
12:49 AM 36.2°F2.3°C 35.9°F2.2°C 99% 0.4 mph NNW0.6 kmh NNW 0.9 mph1.4 kmh 29.96 in1014.6 mb 0.00 in0.0 mm 0.00 in0.0 mm 0.00 in0.0 mm
12:54 AM 36.1°F2.3°C 36.1°F2.3°C 100% 1.0 mph NNW1.6 kmh NNW 1.7 mph2.7 kmh 29.96 in1014.6 mb 0.00 in0.0 mm 0.00 in0.0 mm 0.00 in0.0 mm
12:59 AM 36.1°F2.3°C 35.8°F2.1°C 99% 1.0 mph NNW1.6 kmh NNW 1.3 mph2.1 kmh 29.96 in1014.6 mb 0.00 in0.0 mm 0.00 in0.0 mm 0.00 in0.0 mm
01:04 AM 36.2°F2.3°C 36.2°F2.3°C 100% 1.7 mph NNW2.7 kmh NNW 2.2 mph3.5 kmh 29.96 in1014.6 mb 0.00 in0.0 mm 0.00 in0.0 mm 0.00 in0.0 mm
01:09 AM 36.1°F2.3°C 36.1°F2.3°C 100% 0.9 mph NNW1.4 kmh NNW 1.8 mph2.9 kmh 29.97 in1014.9 mb 0.00 in0.0 mm 0.00 in0.0 mm 0.00 in0.0 mm
01:14 AM 36.1°F2.3°C 36.1°F2.3°C 100% 0.4 mph NNW0.6 kmh NNW 0.7 mph1.1 kmh 29.97 in1014.9 mb 0.00 in0.0 mm 0.00 in0.0 mm 0.00 in0.0 mm
01:19 AM 36.1°F2.3°C 36.1°F2.3°C 100% Calm Calm -- 29.97 in1014.9 mb 0.00 in0.0 mm 0.00 in0.0 mm 0.00 in0.0 mm
01:24 AM 36.1°F2.3°C 36.1°F2.3°C 100% Calm Calm -- 29.96 in1014.6 mb 0.00 in0.0 mm 0.00 in0.0 mm 0.00 in0.0 mm
01:29 AM 36.0°F2.2°C 35.7°F2.1°C 99% Calm Calm -- 29.96 in1014.6 mb 0.00 in0.0 mm 0.00 in0.0 mm 0.00 in0.0 mm
01:34 AM 36.0°F2.2°C 35.7°F2.1°C 99% Calm Calm -- 29.96 in1014.6 mb 0.00 in0.0 mm 0.00 in0.0 mm 0.00 in0.0 mm
01:39 AM 35.8°F2.1°C 35.8°F2.1°C 100% 0.3 mph NNW0.5 kmh NNW 0.9 mph1.4 kmh 29.96 in1014.6 mb 0.00 in0.0 mm 0.00 in0.0 mm 0.00 in0.0 mm
01:44 AM 36.0°F2.2°C 36.0°F2.2°C 100% Calm Calm -- 29.97 in1014.9 mb 0.00 in0.0 mm 0.00 in0.0 mm 0.00 in0.0 mm
01:49 AM 36.0°F2.2°C 35.7°F2.1°C 99% Calm Calm -- 29.97 in1014.9 mb 0.00 in0.0 mm 0.00 in0.0 mm 0.00 in0.0 mm
01:54 AM 36.0°F2.2°C 36.0°F2.2°C 100% 0.5 mph NNW0.8 kmh NNW 0.9 mph1.4 kmh 29.97 in1014.9 mb 0.00 in0.0 mm 0.00 in0.0 mm 0.00 in0.0 mm
01:59 AM 36.0°F2.2°C 36.0°F2.2°C 100% 2.1 mph NNW3.4 kmh NNW 2.7 mph4.3 kmh 29.97 in1014.9 mb 0.00 in0.0 mm 0.00 in0.0 mm 0.00 in0.0 mm
02:04 AM 36.1°F2.3°C 36.1°F2.3°C 100% 1.6 mph N2.6 kmh N 2.4 mph3.9 kmh 29.97 in1014.9 mb 0.00 in0.0 mm 0.00 in0.0 mm 0.00 in0.0 mm
02:09 AM 36.2°F2.3°C 36.2°F2.3°C 100% 1.5 mph NNE2.4 kmh NNE 2.4 mph3.9 kmh 29.97 in1014.9 mb 0.00 in0.0 mm 0.00 in0.0 mm 0.00 in0.0 mm
02:14 AM 36.2°F2.3°C 36.2°F2.3°C 100% 2.4 mph NNW3.9 kmh NNW 3.6 mph5.8 kmh 29.97 in1014.9 mb 0.00 in0.0 mm 0.00 in0.0 mm 0.00 in0.0 mm
02:19 AM 36.2°F2.3°C 36.2°F2.3°C 100% 1.6 mph NNE2.6 kmh NNE 2.2 mph3.5 kmh 29.97 in1014.9 mb 0.00 in0.0 mm 0.00 in0.0 mm 0.00 in0.0 mm
02:24 AM 36.2°F2.3°C 36.2°F2.3°C 100% 1.5 mph N2.4 kmh N 2.0 mph3.2 kmh 29.97 in1014.9 mb 0.00 in0.0 mm 0.00 in0.0 mm 0.00 in0.0 mm
02:29 AM 36.2°F2.3°C 36.2°F2.3°C 100% 1.0 mph N1.6 kmh N 1.7 mph2.7 kmh 29.97 in1014.9 mb 0.00 in0.0 mm 0.00 in0.0 mm 0.00 in0.0 mm
02:34 AM 36.2°F2.3°C 36.2°F2.3°C 100% 1.5 mph NNW2.4 kmh NNW 2.0 mph3.2 kmh 29.97 in1014.9 mb 0.00 in0.0 mm 0.00 in0.0 mm 0.00 in0.0 mm
02:39 AM 36.2°F2.3°C 36.2°F2.3°C 100% 1.1 mph NNW1.8 kmh NNW 1.8 mph2.9 kmh 29.97 in1014.9 mb 0.00 in0.0 mm 0.00 in0.0 mm 0.00 in0.0 mm
02:44 AM 36.2°F2.3°C 36.2°F2.3°C 100% 2.4 mph NNW3.9 kmh NNW 3.3 mph5.3 kmh 29.97 in1014.9 mb 0.00 in0.0 mm 0.00 in0.0 mm 0.00 in0.0 mm
02:49 AM 36.2°F2.3°C 36.2°F2.3°C 100% 3.0 mph NNW4.8 kmh NNW 4.2 mph6.8 kmh 29.98 in1015.2 mb 0.00 in0.0 mm 0.00 in0.0 mm 0.00 in0.0 mm
02:54 AM 36.2°F2.3°C 36.2°F2.3°C 100% 2.8 mph NNW4.5 kmh NNW 3.7 mph6.0 kmh 29.98 in1015.2 mb 0.00 in0.0 mm 0.00 in0.0 mm 0.00 in0.0 mm
02:59 AM 36.1°F2.3°C 36.1°F2.3°C 100% 2.5 mph NNW4.0 kmh NNW 3.4 mph5.5 kmh 29.98 in1015.2 mb 0.00 in0.0 mm 0.00 in0.0 mm 0.00 in0.0 mm
03:04 AM 36.1°F2.3°C 36.1°F2.3°C 100% 2.0 mph NNW3.2 kmh NNW 2.6 mph4.2 kmh 29.98 in1015.2 mb 0.00 in0.0 mm 0.00 in0.0 mm 0.00 in0.0 mm
03:09 AM 36.1°F2.3°C 36.1°F2.3°C 100% 1.8 mph N2.9 kmh N 2.5 mph4.0 kmh 29.98 in1015.2 mb 0.00 in0.0 mm 0.00 in0.0 mm 0.00 in0.0 mm
03:14 AM 36.1°F2.3°C 36.1°F2.3°C 100% 1.8 mph NNW2.9 kmh NNW 2.4 mph3.9 kmh 29.98 in1015.2 mb 0.00 in0.0 mm 0.00 in0.0 mm 0.00 in0.0 mm
03:19 AM 36.1°F2.3°C 36.1°F2.3°C 100% 2.2 mph NW3.5 kmh NW 3.0 mph4.8 kmh 29.98 in1015.2 mb 0.00 in0.0 mm 0.00 in0.0 mm 0.00 in0.0 mm
03:24 AM 36.1°F2.3°C 36.1°F2.3°C 100% 2.2 mph N3.5 kmh N 2.9 mph4.7 kmh 29.98 in1015.2 mb 0.00 in0.0 mm 0.00 in0.0 mm 0.00 in0.0 mm
03:29 AM 36.2°F2.3°C 36.2°F2.3°C 100% 2.6 mph NNW4.2 kmh NNW 3.8 mph6.1 kmh 29.99 in1015.6 mb 0.00 in0.0 mm 0.00 in0.0 mm 0.00 in0.0 mm
03:34 AM 36.2°F2.3°C 36.2°F2.3°C 100% 2.2 mph NNE3.5 kmh NNE 3.2 mph5.1 kmh 29.98 in1015.2 mb 0.00 in0.0 mm 0.00 in0.0 mm 0.00 in0.0 mm
03:39 AM 36.2°F2.3°C 36.2°F2.3°C 100% 2.6 mph NNW4.2 kmh NNW 3.5 mph5.6 kmh 29.99 in1015.6 mb 0.00 in0.0 mm 0.00 in0.0 mm 0.00 in0.0 mm
03:44 AM 36.2°F2.3°C 36.2°F2.3°C 100% 2.7 mph NNW4.3 kmh NNW 3.8 mph6.1 kmh 29.98 in1015.2 mb 0.00 in0.0 mm 0.00 in0.0 mm 0.00 in0.0 mm
03:49 AM 36.3°F2.4°C 36.3°F2.4°C 100% 2.5 mph NNW4.0 kmh NNW 3.2 mph5.1 kmh 29.98 in1015.2 mb 0.00 in0.0 mm 0.00 in0.0 mm 0.00 in0.0 mm
03:54 AM 36.3°F2.4°C 36.3°F2.4°C 100% 2.3 mph NNW3.7 kmh NNW 2.9 mph4.7 kmh 29.98 in1015.2 mb 0.00 in0.0 mm 0.00 in0.0 mm 0.00 in0.0 mm
03:59 AM 36.3°F2.4°C 36.3°F2.4°C 100% 1.6 mph NNW2.6 kmh NNW 2.2 mph3.5 kmh 29.98 in1015.2 mb 0.00 in0.0 mm 0.00 in0.0 mm 0.00 in0.0 mm
04:03 AM 36.3°F2.4°C 36.3°F2.4°C 100% 1.7 mph NNW2.7 kmh NNW 2.1 mph3.4 kmh 29.98 in1015.2 mb 0.00 in0.0 mm 0.00 in0.0 mm 0.00 in0.0 mm
04:06 AM 36.3°F2.4°C 36.3°F2.4°C 100% Calm Calm -- 0.00 in0.0 mb 0.00 in0.0 mm 0.00 in0.0 mm 0.00 in0.0 mm
04:25 AM 36.2°F2.3°C 36.2°F2.3°C 100% Calm Calm -- 0.00 in0.0 mb 0.00 in0.0 mm 0.00 in0.0 mm 0.00 in0.0 mm
04:30 AM 36.2°F2.3°C 36.2°F2.3°C 100% Calm Calm -- 0.00 in0.0 mb 0.00 in0.0 mm 0.00 in0.0 mm 0.00 in0.0 mm
04:35 AM 36.2°F2.3°C 36.2°F2.3°C 100% Calm Calm -- 0.00 in0.0 mb 0.00 in0.0 mm 0.00 in0.0 mm 0.00 in0.0 mm
04:40 AM 36.2°F2.3°C 36.2°F2.3°C 100% Calm Calm -- 0.00 in0.0 mb 0.00 in0.0 mm 0.00 in0.0 mm 0.00 in0.0 mm
04:45 AM 36.2°F2.3°C 36.2°F2.3°C 100% Calm Calm -- 0.00 in0.0 mb 0.00 in0.0 mm 0.00 in0.0 mm 0.00 in0.0 mm
04:50 AM 36.2°F2.3°C 36.2°F2.3°C 100% Calm Calm -- 0.00 in0.0 mb 0.00 in0.0 mm 0.00 in0.0 mm 0.00 in0.0 mm
04:55 AM 36.2°F2.3°C 36.2°F2.3°C 100% Calm Calm -- 0.00 in0.0 mb 0.00 in0.0 mm 0.00 in0.0 mm 0.00 in0.0 mm
05:00 AM 36.2°F2.3°C 36.2°F2.3°C 100% Calm Calm -- 0.00 in0.0 mb 0.00 in0.0 mm 0.00 in0.0 mm 0.00 in0.0 mm
05:05 AM 36.2°F2.3°C 36.2°F2.3°C 100% Calm Calm -- 0.00 in0.0 mb 0.00 in0.0 mm 0.00 in0.0 mm 0.00 in0.0 mm
05:10 AM 36.2°F2.3°C 36.2°F2.3°C 100% Calm Calm -- 0.00 in0.0 mb 0.00 in0.0 mm 0.00 in0.0 mm 0.00 in0.0 mm
05:15 AM 36.2°F2.3°C 36.2°F2.3°C 100% Calm Calm -- 0.00 in0.0 mb 0.00 in0.0 mm 0.00 in0.0 mm 0.00 in0.0 mm
05:20 AM 36.2°F2.3°C 36.2°F2.3°C 100% Calm Calm -- 0.00 in0.0 mb 0.00 in0.0 mm 0.00 in0.0 mm 0.00 in0.0 mm
05:25 AM 36.2°F2.3°C 36.2°F2.3°C 100% Calm Calm -- 0.00 in0.0 mb 0.00 in0.0 mm 0.00 in0.0 mm 0.00 in0.0 mm
05:30 AM 36.2°F2.3°C 36.2°F2.3°C 100% Calm Calm -- 0.00 in0.0 mb 0.00 in0.0 mm 0.00 in0.0 mm 0.00 in0.0 mm
05:35 AM 36.1°F2.3°C 36.1°F2.3°C 100% Calm Calm -- 0.00 in0.0 mb 0.00 in0.0 mm 0.00 in0.0 mm 0.00 in0.0 mm
05:40 AM 36.1°F2.3°C 36.1°F2.3°C 100% Calm Calm -- 0.00 in0.0 mb 0.00 in0.0 mm 0.00 in0.0 mm 0.00 in0.0 mm
05:45 AM 36.1°F2.3°C 36.1°F2.3°C 100% Calm Calm -- 0.00 in0.0 mb 0.00 in0.0 mm 0.00 in0.0 mm 0.00 in0.0 mm
05:50 AM 36.1°F2.3°C 36.1°F2.3°C 100% Calm Calm -- 0.00 in0.0 mb 0.00 in0.0 mm 0.00 in0.0 mm 0.00 in0.0 mm
05:55 AM 36.1°F2.3°C 36.1°F2.3°C 100% Calm Calm -- 0.00 in0.0 mb 0.00 in0.0 mm 0.00 in0.0 mm 0.00 in0.0 mm
06:00 AM 36.1°F2.3°C 36.1°F2.3°C 100% Calm Calm -- 0.00 in0.0 mb 0.00 in0.0 mm 0.00 in0.0 mm 0.00 in0.0 mm
06:05 AM 36.0°F2.2°C 36.0°F2.2°C 100% Calm Calm -- 0.00 in0.0 mb 0.00 in0.0 mm 0.00 in0.0 mm 0.00 in0.0 mm
06:10 AM 36.0°F2.2°C 36.0°F2.2°C 100% Calm Calm -- 0.00 in0.0 mb 0.00 in0.0 mm 0.00 in0.0 mm 0.00 in0.0 mm
06:15 AM 36.0°F2.2°C 36.0°F2.2°C 100% Calm Calm -- 0.00 in0.0 mb 0.00 in0.0 mm 0.00 in0.0 mm 0.00 in0.0 mm
06:20 AM 36.0°F2.2°C 36.0°F2.2°C 100% Calm Calm -- 0.00 in0.0 mb 0.00 in0.0 mm 0.00 in0.0 mm 0.00 in0.0 mm
06:25 AM 35.9°F2.2°C 35.9°F2.2°C 100% Calm Calm -- 0.00 in0.0 mb 0.00 in0.0 mm 0.00 in0.0 mm 0.00 in0.0 mm
06:30 AM 35.9°F2.2°C 35.9°F2.2°C 100% Calm Calm -- 0.00 in0.0 mb 0.00 in0.0 mm 0.00 in0.0 mm 0.00 in0.0 mm
06:35 AM 35.9°F2.2°C 35.9°F2.2°C 100% Calm Calm -- 0.00 in0.0 mb 0.00 in0.0 mm 0.00 in0.0 mm 0.00 in0.0 mm
06:40 AM 35.9°F2.2°C 35.9°F2.2°C 100% Calm Calm -- 0.00 in0.0 mb 0.00 in0.0 mm 0.00 in0.0 mm 0.00 in0.0 mm
06:45 AM 35.9°F2.2°C 35.9°F2.2°C 100% Calm Calm -- 0.00 in0.0 mb 0.00 in0.0 mm 0.00 in0.0 mm 0.00 in0.0 mm
06:50 AM 35.9°F2.2°C 35.9°F2.2°C 100% Calm Calm -- 0.00 in0.0 mb 0.00 in0.0 mm 0.00 in0.0 mm 0.00 in0.0 mm
06:55 AM 35.8°F2.1°C 35.8°F2.1°C 100% Calm Calm -- 0.00 in0.0 mb 0.00 in0.0 mm 0.00 in0.0 mm 0.00 in0.0 mm
07:00 AM 35.8°F2.1°C 35.8°F2.1°C 100% Calm Calm -- 0.00 in0.0 mb 0.00 in0.0 mm 0.00 in0.0 mm 0.00 in0.0 mm
07:05 AM 35.8°F2.1°C 35.8°F2.1°C 100% Calm Calm -- 0.00 in0.0 mb 0.00 in0.0 mm 0.00 in0.0 mm 0.00 in0.0 mm
07:10 AM 35.8°F2.1°C 35.8°F2.1°C 100% Calm Calm -- 0.00 in0.0 mb 0.00 in0.0 mm 0.00 in0.0 mm 0.00 in0.0 mm
07:15 AM 35.8°F2.1°C 35.8°F2.1°C 100% Calm Calm -- 0.00 in0.0 mb 0.00 in0.0 mm 0.00 in0.0 mm 0.00 in0.0 mm
07:20 AM 35.8°F2.1°C 35.8°F2.1°C 100% Calm Calm -- 0.00 in0.0 mb 0.00 in0.0 mm 0.00 in0.0 mm 0.00 in0.0 mm
07:25 AM 35.8°F2.1°C 35.8°F2.1°C 100% Calm Calm -- 0.00 in0.0 mb 0.00 in0.0 mm 0.00 in0.0 mm 0.00 in0.0 mm
07:30 AM 35.7°F2.1°C 35.7°F2.1°C 100% Calm Calm -- 0.00 in0.0 mb 0.00 in0.0 mm 0.00 in0.0 mm 0.00 in0.0 mm
07:35 AM 35.7°F2.1°C 35.7°F2.1°C 100% Calm Calm -- 0.00 in0.0 mb 0.00 in0.0 mm 0.00 in0.0 mm 0.00 in0.0 mm
07:40 AM 35.7°F2.1°C 35.7°F2.1°C 100% Calm Calm -- 0.00 in0.0 mb 0.00 in0.0 mm 0.00 in0.0 mm 0.00 in0.0 mm
07:45 AM 35.7°F2.1°C 35.7°F2.1°C 100% Calm Calm -- 0.00 in0.0 mb 0.00 in0.0 mm 0.00 in0.0 mm 0.00 in0.0 mm
07:50 AM 35.7°F2.1°C 35.7°F2.1°C 100% Calm Calm -- 0.00 in0.0 mb 0.00 in0.0 mm 0.00 in0.0 mm 0.00 in0.0 mm
07:55 AM 35.7°F2.1°C 35.7°F2.1°C 100% Calm Calm -- 0.00 in0.0 mb 0.00 in0.0 mm 0.00 in0.0 mm 0.00 in0.0 mm
08:00 AM 35.7°F2.1°C 35.7°F2.1°C 100% Calm Calm -- 0.00 in0.0 mb 0.00 in0.0 mm 0.00 in0.0 mm 0.00 in0.0 mm
08:05 AM 35.7°F2.1°C 35.7°F2.1°C 100% Calm Calm -- 0.00 in0.0 mb 0.00 in0.0 mm 0.00 in0.0 mm 0.00 in0.0 mm
08:10 AM 35.7°F2.1°C 35.7°F2.1°C 100% Calm Calm -- 0.00 in0.0 mb 0.00 in0.0 mm 0.00 in0.0 mm 0.00 in0.0 mm
08:15 AM 35.5°F1.9°C 35.2°F1.8°C 99% Calm Calm -- 0.00 in0.0 mb 0.00 in0.0 mm 0.00 in0.0 mm 0.00 in0.0 mm
08:20 AM 35.5°F1.9°C 35.2°F1.8°C 99% Calm Calm -- 0.00 in0.0 mb 0.00 in0.0 mm 0.00 in0.0 mm 0.00 in0.0 mm
08:25 AM 35.5°F1.9°C 35.2°F1.8°C 99% Calm Calm -- 0.00 in0.0 mb 0.00 in0.0 mm 0.00 in0.0 mm 0.00 in0.0 mm
08:30 AM 35.5°F1.9°C 35.2°F1.8°C 99% Calm Calm -- 0.00 in0.0 mb 0.00 in0.0 mm 0.00 in0.0 mm 0.00 in0.0 mm
08:35 AM 35.5°F1.9°C 35.2°F1.8°C 99% Calm Calm -- 0.00 in0.0 mb 0.00 in0.0 mm 0.00 in0.0 mm 0.00 in0.0 mm
08:40 AM 35.5°F1.9°C 35.2°F1.8°C 99% Calm Calm -- 0.00 in0.0 mb 0.00 in0.0 mm 0.00 in0.0 mm 0.00 in0.0 mm
08:45 AM 35.4°F1.9°C 35.4°F1.9°C 100% Calm Calm -- 0.00 in0.0 mb 0.00 in0.0 mm 0.00 in0.0 mm 0.00 in0.0 mm
08:50 AM 35.4°F1.9°C 35.4°F1.9°C 100% Calm Calm -- 0.00 in0.0 mb 0.00 in0.0 mm 0.00 in0.0 mm 0.00 in0.0 mm
08:55 AM 35.3°F1.8°C 35.3°F1.8°C 100% Calm Calm -- 0.00 in0.0 mb 0.00 in0.0 mm 0.00 in0.0 mm 0.00 in0.0 mm
09:00 AM 35.3°F1.8°C 35.3°F1.8°C 100% Calm Calm -- 0.00 in0.0 mb 0.00 in0.0 mm 0.00 in0.0 mm 0.00 in0.0 mm
09:05 AM 35.3°F1.8°C 35.3°F1.8°C 100% Calm Calm -- 0.00 in0.0 mb 0.00 in0.0 mm 0.00 in0.0 mm 0.00 in0.0 mm
09:10 AM 35.3°F1.8°C 35.3°F1.8°C 100% Calm Calm -- 0.00 in0.0 mb 0.00 in0.0 mm 0.00 in0.0 mm 0.00 in0.0 mm
09:15 AM 35.3°F1.8°C 35.3°F1.8°C 100% Calm Calm -- 0.00 in0.0 mb 0.00 in0.0 mm 0.00 in0.0 mm 0.00 in0.0 mm
09:20 AM 35.3°F1.8°C 35.3°F1.8°C 100% Calm Calm -- 0.00 in0.0 mb 0.00 in0.0 mm 0.00 in0.0 mm 0.00 in0.0 mm
09:25 AM 35.1°F1.7°C 35.1°F1.7°C 100% Calm Calm -- 0.00 in0.0 mb 0.00 in0.0 mm 0.00 in0.0 mm 0.00 in0.0 mm
09:30 AM 35.1°F1.7°C 35.1°F1.7°C 100% Calm Calm -- 0.00 in0.0 mb 0.00 in0.0 mm 0.00 in0.0 mm 0.00 in0.0 mm
09:35 AM 35.1°F1.7°C 35.1°F1.7°C 100% Calm Calm -- 0.00 in0.0 mb 0.00 in0.0 mm 0.00 in0.0 mm 0.00 in0.0 mm
09:40 AM 35.1°F1.7°C 35.1°F1.7°C 100% Calm Calm -- 0.00 in0.0 mb 0.00 in0.0 mm 0.00 in0.0 mm 0.00 in0.0 mm
09:45 AM 35.1°F1.7°C 35.1°F1.7°C 100% Calm Calm -- 0.00 in0.0 mb 0.00 in0.0 mm 0.00 in0.0 mm 0.00 in0.0 mm
09:50 AM 35.1°F1.7°C 35.1°F1.7°C 100% Calm Calm -- 0.00 in0.0 mb 0.00 in0.0 mm 0.00 in0.0 mm 0.00 in0.0 mm
09:55 AM 34.8°F1.6°C 34.8°F1.6°C 100% Calm Calm -- 0.00 in0.0 mb 0.00 in0.0 mm 0.00 in0.0 mm 0.00 in0.0 mm
10:00 AM 34.2°F1.2°C 34.2°F1.2°C 100% Calm Calm -- 0.00 in0.0 mb 0.00 in0.0 mm 0.00 in0.0 mm 0.00 in0.0 mm
10:05 AM 34.2°F1.2°C 34.2°F1.2°C 100% Calm Calm -- 0.00 in0.0 mb 0.00 in0.0 mm 0.00 in0.0 mm 0.00 in0.0 mm
10:10 AM 34.2°F1.2°C 34.2°F1.2°C 100% Calm Calm -- 0.00 in0.0 mb 0.00 in0.0 mm 0.00 in0.0 mm 0.00 in0.0 mm
10:15 AM 34.3°F1.3°C 34.3°F1.3°C 100% Calm Calm -- 0.00 in0.0 mb 0.00 in0.0 mm 0.00 in0.0 mm 0.00 in0.0 mm
10:20 AM 34.3°F1.3°C 34.3°F1.3°C 100% Calm Calm -- 0.00 in0.0 mb 0.00 in0.0 mm 0.00 in0.0 mm 0.00 in0.0 mm
10:25 AM 34.3°F1.3°C 34.3°F1.3°C 100% Calm Calm -- 0.00 in0.0 mb 0.00 in0.0 mm 0.00 in0.0 mm 0.00 in0.0 mm
10:30 AM 34.4°F1.3°C 34.4°F1.3°C 100% Calm Calm -- 0.00 in0.0 mb 0.00 in0.0 mm 0.00 in0.0 mm 0.00 in0.0 mm
10:35 AM 35.0°F1.7°C 35.0°F1.7°C 100% Calm Calm -- 0.00 in0.0 mb 0.00 in0.0 mm 0.00 in0.0 mm 0.00 in0.0 mm
10:40 AM 35.5°F1.9°C 35.5°F1.9°C 100% Calm Calm -- 0.00 in0.0 mb 0.00 in0.0 mm 0.00 in0.0 mm 0.00 in0.0 mm
10:45 AM 35.6°F2.0°C 35.6°F2.0°C 100% Calm Calm -- 0.00 in0.0 mb 0.00 in0.0 mm 0.00 in0.0 mm 0.00 in0.0 mm
10:50 AM 35.7°F2.1°C 35.7°F2.1°C 100% Calm Calm -- 0.00 in0.0 mb 0.00 in0.0 mm 0.00 in0.0 mm 0.00 in0.0 mm
10:55 AM 36.2°F2.3°C 36.2°F2.3°C 100% Calm Calm -- 0.00 in0.0 mb 0.00 in0.0 mm 0.00 in0.0 mm 0.00 in0.0 mm
11:00 AM 36.7°F2.6°C 36.7°F2.6°C 100% Calm Calm -- 0.00 in0.0 mb 0.00 in0.0 mm 0.00 in0.0 mm 0.00 in0.0 mm
11:05 AM 37.5°F3.1°C 37.5°F3.1°C 100% Calm Calm -- 0.00 in0.0 mb 0.00 in0.0 mm 0.00 in0.0 mm 0.00 in0.0 mm
11:10 AM 37.9°F3.3°C 37.9°F3.3°C 100% Calm Calm -- 0.00 in0.0 mb 0.00 in0.0 mm 0.00 in0.0 mm 0.00 in0.0 mm
11:15 AM 38.5°F3.6°C 38.5°F3.6°C 100% Calm Calm -- 0.00 in0.0 mb 0.00 in0.0 mm 0.00 in0.0 mm 0.00 in0.0 mm
11:20 AM 39.2°F4.0°C 38.9°F3.8°C 99% Calm Calm -- 0.00 in0.0 mb 0.00 in0.0 mm 0.00 in0.0 mm 0.00 in0.0 mm
11:25 AM 39.5°F4.2°C 39.5°F4.2°C 100% Calm Calm -- 0.00 in0.0 mb 0.00 in0.0 mm 0.00 in0.0 mm 0.00 in0.0 mm
11:30 AM 40.2°F4.6°C 40.2°F4.6°C 100% Calm Calm -- 0.00 in0.0 mb 0.00 in0.0 mm 0.00 in0.0 mm 0.00 in0.0 mm
11:35 AM 41.5°F5.3°C 41.0°F5.0°C 98% Calm Calm -- 0.00 in0.0 mb 0.00 in0.0 mm 0.00 in0.0 mm 0.00 in0.0 mm
11:40 AM 41.9°F5.5°C 40.6°F4.8°C 95% Calm Calm -- 0.00 in0.0 mb 0.00 in0.0 mm 0.00 in0.0 mm 0.00 in0.0 mm
11:45 AM 42.0°F5.6°C 40.1°F4.5°C 93% Calm Calm -- 0.00 in0.0 mb 0.00 in0.0 mm 0.00 in0.0 mm 0.00 in0.0 mm
11:50 AM 42.7°F5.9°C 40.8°F4.9°C 93% Calm Calm -- 0.00 in0.0 mb 0.00 in0.0 mm 0.00 in0.0 mm 0.00 in0.0 mm
11:55 AM 43.3°F6.3°C 40.9°F4.9°C 91% Calm Calm -- 0.00 in0.0 mb 0.00 in0.0 mm 0.00 in0.0 mm 0.00 in0.0 mm
12:00 PM 44.5°F6.9°C 41.5°F5.3°C 89% Calm Calm -- 0.00 in0.0 mb 0.00 in0.0 mm 0.00 in0.0 mm 0.00 in0.0 mm
12:05 PM 45.2°F7.3°C 41.6°F5.3°C 87% Calm Calm -- 0.00 in0.0 mb 0.00 in0.0 mm 0.00 in0.0 mm 0.00 in0.0 mm
12:10 PM 44.6°F7.0°C 40.1°F4.5°C 84% Calm Calm -- 0.00 in0.0 mb 0.00 in0.0 mm 0.00 in0.0 mm 0.00 in0.0 mm
12:15 PM 45.7°F7.6°C 41.1°F5.1°C 84% Calm Calm -- 0.00 in0.0 mb 0.00 in0.0 mm 0.00 in0.0 mm 0.00 in0.0 mm
12:20 PM 45.5°F7.5°C 40.3°F4.6°C 82% Calm Calm -- 0.00 in0.0 mb 0.00 in0.0 mm 0.00 in0.0 mm 0.00 in0.0 mm
12:25 PM 46.2°F7.9°C 40.1°F4.5°C 79% Calm Calm -- 0.00 in0.0 mb 0.00 in0.0 mm 0.00 in0.0 mm 0.00 in0.0 mm
12:30 PM 46.5°F8.1°C 40.0°F4.4°C 78% Calm Calm -- 0.00 in0.0 mb 0.00 in0.0 mm 0.00 in0.0 mm 0.00 in0.0 mm
12:35 PM 46.7°F8.2°C 40.2°F4.6°C 78% Calm Calm -- 0.00 in0.0 mb 0.00 in0.0 mm 0.00 in0.0 mm 0.00 in0.0 mm
12:38 PM 48.3°F9.1°C 40.4°F4.7°C 74% Calm Calm -- 0.00 in0.0 mb 0.00 in0.0 mm 0.00 in0.0 mm 0.00 in0.0 mm
12:40 PM 46.7°F8.2°C 40.5°F4.7°C 79% Calm Calm -- 0.00 in0.0 mb 0.00 in0.0 mm 0.00 in0.0 mm 0.00 in0.0 mm
12:45 PM 47.9°F8.8°C 41.4°F5.2°C 78% Calm Calm -- 0.00 in0.0 mb 0.00 in0.0 mm 0.00 in0.0 mm 0.00 in0.0 mm
12:54 PM 49.2°F9.6°C 42.3°F5.7°C 77% 3.7 mph N6.0 kmh N 5.9 mph9.5 kmh 30.08 in1018.6 mb 0.00 in0.0 mm 0.00 in0.0 mm 0.00 in0.0 mm
12:59 PM 49.6°F9.8°C 42.4°F5.8°C 76% 4.6 mph NNE7.4 kmh NNE 7.1 mph11.4 kmh 30.08 in1018.6 mb 0.00 in0.0 mm 0.00 in0.0 mm 0.00 in0.0 mm
01:04 PM 50.0°F10.0°C 41.7°F5.4°C 73% 3.7 mph NW6.0 kmh NW 5.9 mph9.5 kmh 30.08 in1018.6 mb 0.00 in0.0 mm 0.00 in0.0 mm 0.00 in0.0 mm
01:09 PM 50.0°F10.0°C 41.7°F5.4°C 73% 3.8 mph NNE6.1 kmh NNE 5.8 mph9.3 kmh 30.08 in1018.6 mb 0.00 in0.0 mm 0.00 in0.0 mm 0.00 in0.0 mm
01:14 PM 50.1°F10.1°C 42.1°F5.6°C 74% 4.8 mph N7.7 kmh N 8.0 mph12.9 kmh 30.08 in1018.6 mb 0.00 in0.0 mm 0.00 in0.0 mm 0.00 in0.0 mm
01:19 PM 50.5°F10.3°C 41.8°F5.4°C 72% 5.2 mph NNW8.4 kmh NNW 8.8 mph14.2 kmh 30.08 in1018.6 mb 0.00 in0.0 mm 0.00 in0.0 mm 0.00 in0.0 mm
01:24 PM 50.7°F10.4°C 41.3°F5.2°C 70% 5.5 mph WNW8.9 kmh WNW 8.3 mph13.4 kmh 30.08 in1018.6 mb 0.00 in0.0 mm 0.00 in0.0 mm 0.00 in0.0 mm
01:29 PM 50.6°F10.3°C 41.2°F5.1°C 70% 5.2 mph NNW8.4 kmh NNW 8.1 mph13.0 kmh 30.08 in1018.6 mb 0.00 in0.0 mm 0.00 in0.0 mm 0.00 in0.0 mm
01:34 PM 50.6°F10.3°C 40.8°F4.9°C 69% 5.4 mph NW8.7 kmh NW 7.2 mph11.6 kmh 30.08 in1018.6 mb 0.00 in0.0 mm 0.00 in0.0 mm 0.00 in0.0 mm
01:39 PM 50.8°F10.4°C 41.0°F5.0°C 69% 4.3 mph NNW6.9 kmh NNW 6.6 mph10.6 kmh 30.08 in1018.6 mb 0.00 in0.0 mm 0.00 in0.0 mm 0.00 in0.0 mm
01:44 PM 50.7°F10.4°C 41.3°F5.2°C 70% 3.8 mph NNW6.1 kmh NNW 6.2 mph10.0 kmh 30.08 in1018.6 mb 0.00 in0.0 mm 0.00 in0.0 mm 0.00 in0.0 mm
01:49 PM 50.9°F10.5°C 41.5°F5.3°C 70% 4.3 mph NNE6.9 kmh NNE 6.8 mph10.9 kmh 30.07 in1018.3 mb 0.00 in0.0 mm 0.00 in0.0 mm 0.00 in0.0 mm
01:54 PM 51.4°F10.8°C 42.3°F5.7°C 71% 4.5 mph NNW7.2 kmh NNW 6.1 mph9.8 kmh 30.07 in1018.3 mb 0.00 in0.0 mm 0.00 in0.0 mm 0.00 in0.0 mm
01:59 PM 51.7°F10.9°C 42.2°F5.7°C 70% 4.3 mph N6.9 kmh N 6.5 mph10.5 kmh 30.07 in1018.3 mb 0.00 in0.0 mm 0.00 in0.0 mm 0.00 in0.0 mm
02:04 PM 51.6°F10.9°C 41.0°F5.0°C 67% 3.4 mph NE5.5 kmh NE 5.2 mph8.4 kmh 30.07 in1018.3 mb 0.00 in0.0 mm 0.00 in0.0 mm 0.00 in0.0 mm
02:09 PM 51.7°F10.9°C 42.2°F5.7°C 70% 1.2 mph SW1.9 kmh SW 2.2 mph3.5 kmh 30.07 in1018.3 mb 0.00 in0.0 mm 0.00 in0.0 mm 0.00 in0.0 mm
02:14 PM 52.1°F11.2°C 44.8°F7.1°C 76% 4.7 mph NNW7.6 kmh NNW 6.6 mph10.6 kmh 30.07 in1018.3 mb 0.00 in0.0 mm 0.00 in0.0 mm 0.00 in0.0 mm
02:19 PM 52.8°F11.6°C 44.0°F6.7°C 72% 3.4 mph WSW5.5 kmh WSW 5.3 mph8.5 kmh 30.07 in1018.3 mb 0.00 in0.0 mm 0.00 in0.0 mm 0.00 in0.0 mm
02:24 PM 53.6°F12.0°C 42.5°F5.8°C 66% 4.9 mph N7.9 kmh N 6.8 mph10.9 kmh 30.07 in1018.3 mb 0.00 in0.0 mm 0.00 in0.0 mm 0.00 in0.0 mm
02:29 PM 53.7°F12.1°C 42.2°F5.7°C 65% 2.5 mph SW4.0 kmh SW 4.2 mph6.8 kmh 30.07 in1018.3 mb 0.00 in0.0 mm 0.00 in0.0 mm 0.00 in0.0 mm
02:34 PM 54.0°F12.2°C 44.4°F6.9°C 70% 3.0 mph NW4.8 kmh NW 5.7 mph9.2 kmh 30.07 in1018.3 mb 0.00 in0.0 mm 0.00 in0.0 mm 0.00 in0.0 mm
02:39 PM 54.7°F12.6°C 45.9°F7.7°C 72% 3.4 mph NW5.5 kmh NW 5.9 mph9.5 kmh 30.07 in1018.3 mb 0.00 in0.0 mm 0.00 in0.0 mm 0.00 in0.0 mm
02:44 PM 54.7°F12.6°C 43.2°F6.2°C 65% 5.9 mph NNE9.5 kmh NNE 7.8 mph12.6 kmh 30.07 in1018.3 mb 0.00 in0.0 mm 0.00 in0.0 mm 0.00 in0.0 mm
02:49 PM 54.7°F12.6°C 41.9°F5.5°C 62% 4.9 mph NNW7.9 kmh NNW 7.4 mph11.9 kmh 30.07 in1018.3 mb 0.00 in0.0 mm 0.00 in0.0 mm 0.00 in0.0 mm
02:54 PM 55.0°F12.8°C 42.2°F5.7°C 62% 4.9 mph WSW7.9 kmh WSW 7.0 mph11.3 kmh 30.07 in1018.3 mb 0.00 in0.0 mm 0.00 in0.0 mm 0.00 in0.0 mm
02:59 PM 54.8°F12.7°C 42.0°F5.6°C 62% 5.0 mph NNW8.0 kmh NNW 8.0 mph12.9 kmh 30.06 in1017.9 mb 0.00 in0.0 mm 0.00 in0.0 mm 0.00 in0.0 mm
03:04 PM 54.9°F12.7°C 41.7°F5.4°C 61% 3.8 mph N6.1 kmh N 7.0 mph11.3 kmh 30.06 in1017.9 mb 0.00 in0.0 mm 0.00 in0.0 mm 0.00 in0.0 mm
03:09 PM 55.8°F13.2°C 41.7°F5.4°C 59% 4.5 mph WNW7.2 kmh WNW 7.0 mph11.3 kmh 30.06 in1017.9 mb 0.00 in0.0 mm 0.00 in0.0 mm 0.00 in0.0 mm
03:14 PM 56.0°F13.3°C 41.9°F5.5°C 59% 3.4 mph WSW5.5 kmh WSW 4.5 mph7.2 kmh 30.06 in1017.9 mb 0.00 in0.0 mm 0.00 in0.0 mm 0.00 in0.0 mm
03:19 PM 55.7°F13.2°C 42.0°F5.6°C 60% 5.4 mph NW8.7 kmh NW 9.6 mph15.4 kmh 30.06 in1017.9 mb 0.00 in0.0 mm 0.00 in0.0 mm 0.00 in0.0 mm
03:24 PM 55.8°F13.2°C 41.7°F5.4°C 59% 2.6 mph W4.2 kmh W 4.5 mph7.2 kmh 30.06 in1017.9 mb 0.00 in0.0 mm 0.00 in0.0 mm 0.00 in0.0 mm
03:29 PM 56.1°F13.4°C 42.0°F5.6°C 59% 5.3 mph SE8.5 kmh SE 6.9 mph11.1 kmh 30.06 in1017.9 mb 0.00 in0.0 mm 0.00 in0.0 mm 0.00 in0.0 mm
03:34 PM 56.4°F13.6°C 42.7°F5.9°C 60% 2.7 mph NW4.3 kmh NW 4.9 mph7.9 kmh 30.05 in1017.6 mb 0.00 in0.0 mm 0.00 in0.0 mm 0.00 in0.0 mm
03:39 PM 56.1°F13.4°C 42.4°F5.8°C 60% 6.6 mph SSW10.6 kmh SSW 9.5 mph15.3 kmh 30.05 in1017.6 mb 0.00 in0.0 mm 0.00 in0.0 mm 0.00 in0.0 mm
03:44 PM 55.8°F13.2°C 42.6°F5.9°C 61% 9.7 mph SSW15.6 kmh SSW 13.1 mph21.1 kmh 30.05 in1017.6 mb 0.00 in0.0 mm 0.00 in0.0 mm 0.00 in0.0 mm
03:49 PM 55.2°F12.9°C 42.4°F5.8°C 62% 8.7 mph SW14.0 kmh SW 11.8 mph19.0 kmh 30.05 in1017.6 mb 0.00 in0.0 mm 0.00 in0.0 mm 0.00 in0.0 mm
03:54 PM 54.2°F12.3°C 41.9°F5.5°C 63% 8.1 mph SSW13.0 kmh SSW 11.0 mph17.7 kmh 30.05 in1017.6 mb 0.00 in0.0 mm 0.00 in0.0 mm 0.00 in0.0 mm
03:59 PM 53.8°F12.1°C 41.9°F5.5°C 64% 7.6 mph SW12.2 kmh SW 11.7 mph18.8 kmh 30.05 in1017.6 mb 0.00 in0.0 mm 0.00 in0.0 mm 0.00 in0.0 mm
04:04 PM 53.5°F11.9°C 42.0°F5.6°C 65% 7.8 mph SSW12.6 kmh SSW 12.4 mph20.0 kmh 30.05 in1017.6 mb 0.00 in0.0 mm 0.00 in0.0 mm 0.00 in0.0 mm
04:09 PM 53.2°F11.8°C 42.1°F5.6°C 66% 8.8 mph SW14.2 kmh SW 12.0 mph19.3 kmh 30.05 in1017.6 mb 0.00 in0.0 mm 0.00 in0.0 mm 0.00 in0.0 mm
04:14 PM 52.8°F11.6°C 41.8°F5.4°C 66% 9.0 mph SW14.5 kmh SW 12.4 mph20.0 kmh 30.05 in1017.6 mb 0.00 in0.0 mm 0.00 in0.0 mm 0.00 in0.0 mm
04:19 PM 52.6°F11.4°C 41.6°F5.3°C 66% 8.5 mph SW13.7 kmh SW 11.7 mph18.8 kmh 30.05 in1017.6 mb 0.00 in0.0 mm 0.00 in0.0 mm 0.00 in0.0 mm
04:24 PM 52.3°F11.3°C 41.3°F5.2°C 66% 6.9 mph SW11.1 kmh SW 10.3 mph16.6 kmh 30.05 in1017.6 mb 0.00 in0.0 mm 0.00 in0.0 mm 0.00 in0.0 mm
04:29 PM 51.9°F11.1°C 41.7°F5.4°C 68% 7.3 mph SW11.7 kmh SW 10.2 mph16.4 kmh 30.05 in1017.6 mb 0.00 in0.0 mm 0.00 in0.0 mm 0.00 in0.0 mm
04:34 PM 51.4°F10.8°C 41.6°F5.3°C 69% 8.6 mph SSW13.8 kmh SSW 12.6 mph20.3 kmh 30.05 in1017.6 mb 0.00 in0.0 mm 0.00 in0.0 mm 0.00 in0.0 mm
04:39 PM 50.9°F10.5°C 41.8°F5.4°C 71% 8.1 mph SW13.0 kmh SW 12.0 mph19.3 kmh 30.06 in1017.9 mb 0.00 in0.0 mm 0.00 in0.0 mm 0.00 in0.0 mm
04:44 PM 50.4°F10.2°C 41.7°F5.4°C 72% 8.2 mph SW13.2 kmh SW 11.5 mph18.5 kmh 30.06 in1017.9 mb 0.00 in0.0 mm 0.00 in0.0 mm 0.00 in0.0 mm
04:49 PM 49.8°F9.9°C 41.5°F5.3°C 73% 8.8 mph SW14.2 kmh SW 13.3 mph21.4 kmh 30.06 in1017.9 mb 0.00 in0.0 mm 0.00 in0.0 mm 0.00 in0.0 mm
04:54 PM 49.5°F9.7°C 41.6°F5.3°C 74% 8.1 mph SW13.0 kmh SW 12.3 mph19.8 kmh 30.06 in1017.9 mb 0.00 in0.0 mm 0.00 in0.0 mm 0.00 in0.0 mm
04:59 PM 49.4°F9.7°C 41.5°F5.3°C 74% 7.1 mph SW11.4 kmh SW 10.5 mph16.9 kmh 30.06 in1017.9 mb 0.00 in0.0 mm 0.00 in0.0 mm 0.00 in0.0 mm
05:04 PM 49.5°F9.7°C 41.6°F5.3°C 74% 8.5 mph SSW13.7 kmh SSW 12.7 mph20.4 kmh 30.06 in1017.9 mb 0.00 in0.0 mm 0.00 in0.0 mm 0.00 in0.0 mm
05:09 PM 49.5°F9.7°C 41.6°F5.3°C 74% 8.9 mph SW14.3 kmh SW 12.2 mph19.6 kmh 30.06 in1017.9 mb 0.00 in0.0 mm 0.00 in0.0 mm 0.00 in0.0 mm
05:14 PM 49.2°F9.6°C 41.3°F5.2°C 74% 7.2 mph SSW11.6 kmh SSW 11.2 mph18.0 kmh 30.06 in1017.9 mb 0.00 in0.0 mm 0.00 in0.0 mm 0.00 in0.0 mm
05:19 PM 49.0°F9.4°C 41.4°F5.2°C 75% 9.2 mph SW14.8 kmh SW 12.9 mph20.8 kmh 30.06 in1017.9 mb 0.00 in0.0 mm 0.00 in0.0 mm 0.00 in0.0 mm
05:24 PM 48.8°F9.3°C 41.2°F5.1°C 75% 8.2 mph SW13.2 kmh SW 12.8 mph20.6 kmh 30.06 in1017.9 mb 0.00 in0.0 mm 0.00 in0.0 mm 0.00 in0.0 mm
05:29 PM 48.7°F9.3°C 41.1°F5.1°C 75% 7.0 mph SW11.3 kmh SW 10.5 mph16.9 kmh 30.06 in1017.9 mb 0.00 in0.0 mm 0.00 in0.0 mm 0.00 in0.0 mm
05:34 PM 48.7°F9.3°C 41.1°F5.1°C 75% 9.4 mph SSW15.1 kmh SSW 13.1 mph21.1 kmh 30.06 in1017.9 mb 0.00 in0.0 mm 0.00 in0.0 mm 0.00 in0.0 mm
05:39 PM 48.6°F9.2°C 41.0°F5.0°C 75% 9.2 mph SW14.8 kmh SW 13.1 mph21.1 kmh 30.06 in1017.9 mb 0.00 in0.0 mm 0.00 in0.0 mm 0.00 in0.0 mm
05:44 PM 48.4°F9.1°C 40.5°F4.7°C 74% 7.6 mph SSW12.2 kmh SSW 11.2 mph18.0 kmh 30.06 in1017.9 mb 0.00 in0.0 mm 0.00 in0.0 mm 0.00 in0.0 mm
05:49 PM 48.3°F9.1°C 40.8°F4.9°C 75% 10.5 mph SSW16.9 kmh SSW 14.2 mph22.9 kmh 30.06 in1017.9 mb 0.00 in0.0 mm 0.00 in0.0 mm 0.00 in0.0 mm
05:54 PM 48.2°F9.0°C 40.7°F4.8°C 75% 9.5 mph SSW15.3 kmh SSW 13.0 mph20.9 kmh 30.05 in1017.6 mb 0.00 in0.0 mm 0.00 in0.0 mm 0.00 in0.0 mm
05:59 PM 48.2°F9.0°C 40.7°F4.8°C 75% 8.5 mph SSW13.7 kmh SSW 12.2 mph19.6 kmh 30.05 in1017.6 mb 0.00 in0.0 mm 0.00 in0.0 mm 0.00 in0.0 mm
06:04 PM 48.0°F8.9°C 40.5°F4.7°C 75% 8.3 mph SSW13.4 kmh SSW 12.3 mph19.8 kmh 30.05 in1017.6 mb 0.00 in0.0 mm 0.00 in0.0 mm 0.00 in0.0 mm
06:09 PM 47.7°F8.7°C 40.2°F4.6°C 75% 8.5 mph SSW13.7 kmh SSW 11.7 mph18.8 kmh 30.05 in1017.6 mb 0.00 in0.0 mm 0.00 in0.0 mm 0.00 in0.0 mm
06:14 PM 47.7°F8.7°C 39.8°F4.3°C 74% 7.1 mph SW11.4 kmh SW 10.5 mph16.9 kmh 30.05 in1017.6 mb 0.00 in0.0 mm 0.00 in0.0 mm 0.00 in0.0 mm
06:19 PM 47.8°F8.8°C 40.3°F4.6°C 75% 7.3 mph SSW11.7 kmh SSW 10.3 mph16.6 kmh 30.05 in1017.6 mb 0.00 in0.0 mm 0.00 in0.0 mm 0.00 in0.0 mm
06:24 PM 47.8°F8.8°C 40.3°F4.6°C 75% 5.8 mph SSW9.3 kmh SSW 9.2 mph14.8 kmh 30.06 in1017.9 mb 0.00 in0.0 mm 0.00 in0.0 mm 0.00 in0.0 mm
06:29 PM 47.7°F8.7°C 40.2°F4.6°C 75% 6.4 mph SW10.3 kmh SW 9.5 mph15.3 kmh 30.06 in1017.9 mb 0.00 in0.0 mm 0.00 in0.0 mm 0.00 in0.0 mm
06:34 PM 47.3°F8.5°C 39.8°F4.3°C 75% 7.7 mph SW12.4 kmh SW 10.8 mph17.4 kmh 30.06 in1017.9 mb 0.00 in0.0 mm 0.00 in0.0 mm 0.00 in0.0 mm
06:39 PM 46.9°F8.3°C 39.7°F4.3°C 76% 6.8 mph SSW10.9 kmh SSW 9.4 mph15.1 kmh 30.06 in1017.9 mb 0.00 in0.0 mm 0.00 in0.0 mm 0.00 in0.0 mm
06:44 PM 46.6°F8.1°C 39.8°F4.3°C 77% 6.8 mph SW10.9 kmh SW 9.9 mph15.9 kmh 30.06 in1017.9 mb 0.00 in0.0 mm 0.00 in0.0 mm 0.00 in0.0 mm
06:49 PM 46.3°F7.9°C 39.8°F4.3°C 78% 7.5 mph SW12.1 kmh SW 10.4 mph16.7 kmh 30.06 in1017.9 mb 0.00 in0.0 mm 0.00 in0.0 mm 0.00 in0.0 mm
06:54 PM 46.0°F7.8°C 39.9°F4.4°C 79% 6.5 mph SW10.5 kmh SW 9.7 mph15.6 kmh 30.06 in1017.9 mb 0.00 in0.0 mm 0.00 in0.0 mm 0.00 in0.0 mm
06:59 PM 45.7°F7.6°C 39.6°F4.2°C 79% 7.9 mph SSW12.7 kmh SSW 11.1 mph17.9 kmh 30.06 in1017.9 mb 0.00 in0.0 mm 0.00 in0.0 mm 0.00 in0.0 mm
07:04 PM 45.5°F7.5°C 39.4°F4.1°C 79% 6.0 mph SSW9.7 kmh SSW 8.6 mph13.8 kmh 30.06 in1017.9 mb 0.00 in0.0 mm 0.00 in0.0 mm 0.00 in0.0 mm
07:09 PM 45.2°F7.3°C 39.7°F4.3°C 81% 5.5 mph SSW8.9 kmh SSW 7.2 mph11.6 kmh 30.06 in1017.9 mb 0.00 in0.0 mm 0.00 in0.0 mm 0.00 in0.0 mm
07:14 PM 44.8°F7.1°C 39.3°F4.1°C 81% 5.2 mph SSW8.4 kmh SSW 6.9 mph11.1 kmh 30.07 in1018.3 mb 0.00 in0.0 mm 0.00 in0.0 mm 0.00 in0.0 mm
07:19 PM 44.5°F6.9°C 39.4°F4.1°C 82% 6.0 mph SSW9.7 kmh SSW 8.5 mph13.7 kmh 30.06 in1017.9 mb 0.00 in0.0 mm 0.00 in0.0 mm 0.00 in0.0 mm
07:24 PM 44.1°F6.7°C 39.0°F3.9°C 82% 5.0 mph SW8.0 kmh SW 7.4 mph11.9 kmh 30.06 in1017.9 mb 0.00 in0.0 mm 0.00 in0.0 mm 0.00 in0.0 mm
07:29 PM 43.8°F6.6°C 39.0°F3.9°C 83% 6.3 mph SSW10.1 kmh SSW 9.2 mph14.8 kmh 30.06 in1017.9 mb 0.00 in0.0 mm 0.00 in0.0 mm 0.00 in0.0 mm
07:34 PM 43.5°F6.4°C 39.0°F3.9°C 84% 6.0 mph SSW9.7 kmh SSW 8.4 mph13.5 kmh 30.06 in1017.9 mb 0.00 in0.0 mm 0.00 in0.0 mm 0.00 in0.0 mm
07:39 PM 43.2°F6.2°C 38.7°F3.7°C 84% 5.4 mph SW8.7 kmh SW 7.8 mph12.6 kmh 30.07 in1018.3 mb 0.00 in0.0 mm 0.00 in0.0 mm 0.00 in0.0 mm
07:44 PM 42.8°F6.0°C 38.6°F3.7°C 85% 5.6 mph SW9.0 kmh SW 8.7 mph14.0 kmh 30.07 in1018.3 mb 0.00 in0.0 mm 0.00 in0.0 mm 0.00 in0.0 mm
07:49 PM 42.7°F5.9°C 38.8°F3.8°C 86% 6.2 mph SW10.0 kmh SW 9.7 mph15.6 kmh 30.07 in1018.3 mb 0.00 in0.0 mm 0.00 in0.0 mm 0.00 in0.0 mm
07:54 PM 42.5°F5.8°C 38.6°F3.7°C 86% 7.9 mph SW12.7 kmh SW 11.3 mph18.2 kmh 30.07 in1018.3 mb 0.00 in0.0 mm 0.00 in0.0 mm 0.00 in0.0 mm
07:59 PM 42.5°F5.8°C 38.9°F3.8°C 87% 6.8 mph SW10.9 kmh SW 10.6 mph17.1 kmh 30.07 in1018.3 mb 0.00 in0.0 mm 0.00 in0.0 mm 0.00 in0.0 mm
08:04 PM 42.5°F5.8°C 38.9°F3.8°C 87% 6.6 mph SW10.6 kmh SW 10.0 mph16.1 kmh 30.07 in1018.3 mb 0.00 in0.0 mm 0.00 in0.0 mm 0.00 in0.0 mm
08:09 PM 42.3°F5.7°C 38.7°F3.7°C 87% 7.2 mph SW11.6 kmh SW 10.2 mph16.4 kmh 30.08 in1018.6 mb 0.00 in0.0 mm 0.00 in0.0 mm 0.00 in0.0 mm
08:14 PM 42.2°F5.7°C 38.9°F3.8°C 88% 6.7 mph SSW10.8 kmh SSW 9.6 mph15.4 kmh 30.08 in1018.6 mb 0.00 in0.0 mm 0.00 in0.0 mm 0.00 in0.0 mm
08:19 PM 42.2°F5.7°C 38.9°F3.8°C 88% 4.3 mph SSW6.9 kmh SSW 6.0 mph9.7 kmh 30.08 in1018.6 mb 0.00 in0.0 mm 0.00 in0.0 mm 0.00 in0.0 mm
08:24 PM 42.1°F5.6°C 38.8°F3.8°C 88% 6.2 mph SW10.0 kmh SW 8.6 mph13.8 kmh 30.08 in1018.6 mb 0.00 in0.0 mm 0.00 in0.0 mm 0.00 in0.0 mm
08:29 PM 42.0°F5.6°C 38.7°F3.7°C 88% 4.9 mph SSW7.9 kmh SSW 6.9 mph11.1 kmh 30.09 in1019.0 mb 0.00 in0.0 mm 0.00 in0.0 mm 0.00 in0.0 mm
08:34 PM 41.8°F5.4°C 38.5°F3.6°C 88% 5.7 mph SW9.2 kmh SW 7.7 mph12.4 kmh 30.08 in1018.6 mb 0.00 in0.0 mm 0.00 in0.0 mm 0.00 in0.0 mm
08:39 PM 41.8°F5.4°C 38.8°F3.8°C 89% 4.2 mph SW6.8 kmh SW 5.7 mph9.2 kmh 30.09 in1019.0 mb 0.00 in0.0 mm 0.00 in0.0 mm 0.00 in0.0 mm
08:44 PM 41.7°F5.4°C 39.0°F3.9°C 90% 4.7 mph SSW7.6 kmh SSW 6.2 mph10.0 kmh 30.09 in1019.0 mb 0.00 in0.0 mm 0.00 in0.0 mm 0.00 in0.0 mm
08:49 PM 41.7°F5.4°C 39.0°F3.9°C 90% 4.5 mph SSW7.2 kmh SSW 6.4 mph10.3 kmh 30.09 in1019.0 mb 0.00 in0.0 mm 0.00 in0.0 mm 0.00 in0.0 mm
08:54 PM 41.7°F5.4°C 39.3°F4.1°C 91% 3.9 mph SSW6.3 kmh SSW 5.0 mph8.0 kmh 30.09 in1019.0 mb 0.00 in0.0 mm 0.00 in0.0 mm 0.00 in0.0 mm
08:59 PM 41.6°F5.3°C 39.2°F4.0°C 91% 2.9 mph SW4.7 kmh SW 4.7 mph7.6 kmh 30.09 in1019.0 mb 0.00 in0.0 mm 0.00 in0.0 mm 0.00 in0.0 mm
09:04 PM 41.3°F5.2°C 38.9°F3.8°C 91% 2.8 mph SSW4.5 kmh SSW 4.1 mph6.6 kmh 30.09 in1019.0 mb 0.00 in0.0 mm 0.00 in0.0 mm 0.00 in0.0 mm
09:09 PM 41.2°F5.1°C 39.1°F3.9°C 92% 3.7 mph SSW6.0 kmh SSW 5.0 mph8.0 kmh 30.09 in1019.0 mb 0.00 in0.0 mm 0.00 in0.0 mm 0.00 in0.0 mm
09:14 PM 41.1°F5.1°C 39.0°F3.9°C 92% 4.1 mph SSW6.6 kmh SSW 5.6 mph9.0 kmh 30.09 in1019.0 mb 0.00 in0.0 mm 0.00 in0.0 mm 0.00 in0.0 mm
09:19 PM 41.2°F5.1°C 39.1°F3.9°C 92% 4.2 mph SSW6.8 kmh SSW 6.1 mph9.8 kmh 30.09 in1019.0 mb 0.00 in0.0 mm 0.00 in0.0 mm 0.00 in0.0 mm
09:24 PM 41.2°F5.1°C 39.1°F3.9°C 92% 4.1 mph SW6.6 kmh SW 5.5 mph8.9 kmh 30.09 in1019.0 mb 0.00 in0.0 mm 0.00 in0.0 mm 0.00 in0.0 mm
09:29 PM 41.2°F5.1°C 39.3°F4.1°C 93% 3.4 mph SSW5.5 kmh SSW 5.0 mph8.0 kmh 30.09 in1019.0 mb 0.00 in0.0 mm 0.00 in0.0 mm 0.00 in0.0 mm
09:34 PM 41.2°F5.1°C 39.3°F4.1°C 93% 3.8 mph SW6.1 kmh SW 5.2 mph8.4 kmh 30.09 in1019.0 mb 0.00 in0.0 mm 0.00 in0.0 mm 0.00 in0.0 mm
09:39 PM 41.2°F5.1°C 39.6°F4.2°C 94% 4.0 mph SW6.4 kmh SW 5.8 mph9.3 kmh 30.09 in1019.0 mb 0.00 in0.0 mm 0.00 in0.0 mm 0.00 in0.0 mm
09:44 PM 41.2°F5.1°C 39.6°F4.2°C 94% 4.4 mph SW7.1 kmh SW 7.2 mph11.6 kmh 30.09 in1019.0 mb 0.00 in0.0 mm 0.00 in0.0 mm 0.00 in0.0 mm
09:49 PM 41.3°F5.2°C 39.7°F4.3°C 94% 3.1 mph SW5.0 kmh SW 5.3 mph8.5 kmh 30.09 in1019.0 mb 0.00 in0.0 mm 0.00 in0.0 mm 0.00 in0.0 mm
09:54 PM 41.2°F5.1°C 39.6°F4.2°C 94% 4.0 mph SW6.4 kmh SW 6.2 mph10.0 kmh 30.09 in1019.0 mb 0.00 in0.0 mm 0.00 in0.0 mm 0.00 in0.0 mm
09:59 PM 41.2°F5.1°C 39.9°F4.4°C 95% 4.5 mph SW7.2 kmh SW 8.5 mph13.7 kmh 30.09 in1019.0 mb 0.00 in0.0 mm 0.00 in0.0 mm 0.00 in0.0 mm
10:04 PM 41.2°F5.1°C 39.9°F4.4°C 95% 3.9 mph SW6.3 kmh SW 5.8 mph9.3 kmh 30.09 in1019.0 mb 0.00 in0.0 mm 0.00 in0.0 mm 0.00 in0.0 mm
10:09 PM 41.1°F5.1°C 39.8°F4.3°C 95% 4.7 mph SSW7.6 kmh SSW 6.9 mph11.1 kmh 30.09 in1019.0 mb 0.00 in0.0 mm 0.00 in0.0 mm 0.00 in0.0 mm
10:14 PM 41.0°F5.0°C 39.7°F4.3°C 95% 4.4 mph SW7.1 kmh SW 6.8 mph10.9 kmh 30.09 in1019.0 mb 0.00 in0.0 mm 0.00 in0.0 mm 0.00 in0.0 mm
10:19 PM 41.0°F5.0°C 39.7°F4.3°C 95% 3.9 mph SW6.3 kmh SW 5.8 mph9.3 kmh 30.09 in1019.0 mb 0.00 in0.0 mm 0.00 in0.0 mm 0.00 in0.0 mm
10:24 PM 41.0°F5.0°C 39.4°F4.1°C 94% 4.0 mph SW6.4 kmh SW 5.9 mph9.5 kmh 30.09 in1019.0 mb 0.00 in0.0 mm 0.00 in0.0 mm 0.00 in0.0 mm
10:29 PM 41.1°F5.1°C 39.8°F4.3°C 95% 5.1 mph SW8.2 kmh SW 8.3 mph13.4 kmh 30.10 in1019.3 mb 0.00 in0.0 mm 0.00 in0.0 mm 0.00 in0.0 mm
10:34 PM 41.1°F5.1°C 39.8°F4.3°C 95% 3.6 mph SW5.8 kmh SW 5.5 mph8.9 kmh 30.10 in1019.3 mb 0.00 in0.0 mm 0.00 in0.0 mm 0.00 in0.0 mm
10:39 PM 41.1°F5.1°C 39.8°F4.3°C 95% 5.4 mph SW8.7 kmh SW 8.7 mph14.0 kmh 30.10 in1019.3 mb 0.00 in0.0 mm 0.00 in0.0 mm 0.00 in0.0 mm
10:44 PM 41.1°F5.1°C 39.8°F4.3°C 95% 4.9 mph SW7.9 kmh SW 7.9 mph12.7 kmh 30.10 in1019.3 mb 0.00 in0.0 mm 0.00 in0.0 mm 0.00 in0.0 mm
10:49 PM 41.1°F5.1°C 39.8°F4.3°C 95% 5.6 mph SW9.0 kmh SW 8.0 mph12.9 kmh 30.09 in1019.0 mb 0.00 in0.0 mm 0.00 in0.0 mm 0.00 in0.0 mm
10:54 PM 41.1°F5.1°C 39.8°F4.3°C 95% 5.3 mph SW8.5 kmh SW 7.9 mph12.7 kmh 30.10 in1019.3 mb 0.00 in0.0 mm 0.00 in0.0 mm 0.00 in0.0 mm
10:59 PM 41.2°F5.1°C 39.9°F4.4°C 95% 6.6 mph SW10.6 kmh SW 9.8 mph15.8 kmh 30.09 in1019.0 mb 0.00 in0.0 mm 0.00 in0.0 mm 0.00 in0.0 mm
11:04 PM 41.2°F5.1°C 39.9°F4.4°C 95% 5.9 mph SW9.5 kmh SW 8.4 mph13.5 kmh 30.10 in1019.3 mb 0.00 in0.0 mm 0.00 in0.0 mm 0.00 in0.0 mm
11:09 PM 41.3°F5.2°C 40.0°F4.4°C 95% 5.0 mph SW8.0 kmh SW 7.4 mph11.9 kmh 30.10 in1019.3 mb 0.00 in0.0 mm 0.00 in0.0 mm 0.00 in0.0 mm
11:14 PM 41.3°F5.2°C 40.0°F4.4°C 95% 5.1 mph SW8.2 kmh SW 7.4 mph11.9 kmh 30.09 in1019.0 mb 0.00 in0.0 mm 0.00 in0.0 mm 0.00 in0.0 mm
11:19 PM 41.2°F5.1°C 39.9°F4.4°C 95% 4.0 mph SW6.4 kmh SW 5.8 mph9.3 kmh 30.09 in1019.0 mb 0.00 in0.0 mm 0.00 in0.0 mm 0.00 in0.0 mm
11:24 PM 41.2°F5.1°C 39.9°F4.4°C 95% 3.6 mph SW5.8 kmh SW 5.3 mph8.5 kmh 30.09 in1019.0 mb 0.00 in0.0 mm 0.00 in0.0 mm 0.00 in0.0 mm
11:29 PM 41.2°F5.1°C 39.9°F4.4°C 95% 4.3 mph SSW6.9 kmh SSW 6.6 mph10.6 kmh 30.09 in1019.0 mb 0.00 in0.0 mm 0.00 in0.0 mm 0.00 in0.0 mm
11:34 PM 41.1°F5.1°C 40.0°F4.4°C 96% 3.9 mph SW6.3 kmh SW 5.4 mph8.7 kmh 30.09 in1019.0 mb 0.00 in0.0 mm 0.00 in0.0 mm 0.00 in0.0 mm
11:39 PM 41.0°F5.0°C 39.9°F4.4°C 96% 3.8 mph SSW6.1 kmh SSW 5.6 mph9.0 kmh 30.09 in1019.0 mb 0.00 in0.0 mm 0.00 in0.0 mm 0.00 in0.0 mm
11:44 PM 41.0°F5.0°C 39.9°F4.4°C 96% 4.5 mph SW7.2 kmh SW 6.0 mph9.7 kmh 30.08 in1018.6 mb 0.00 in0.0 mm 0.00 in0.0 mm 0.00 in0.0 mm
11:49 PM 41.0°F5.0°C 39.9°F4.4°C 96% 3.8 mph SSW6.1 kmh SSW 6.0 mph9.7 kmh 30.08 in1018.6 mb 0.00 in0.0 mm 0.00 in0.0 mm 0.00 in0.0 mm
11:54 PM 41.0°F5.0°C 39.9°F4.4°C 96% 2.4 mph WSW3.9 kmh WSW 3.4 mph5.5 kmh 30.08 in1018.6 mb 0.00 in0.0 mm 0.00 in0.0 mm 0.00 in0.0 mm